Terminal Aerodrome Forecast
Issued by NWS

Home | Current Version | Previous Version | Graphics & Text | Print | Product List | Glossary On
Versions: 1 2 3 4 5 6 7 8 9 10 11 12 13 14 15 16 17
000
FTUS43 KBIS 221731
TAFMOT
TAF
KMOT 221731Z 2218/2318 36017G25KT P6SM BKN060
     FM222100 35018G27KT P6SM VCSH BKN070
     FM222300 35017G26KT P6SM BKN090
     FM230300 35010KT P6SM SCT100=

USA.gov is the U.S. government's official web portal to all federal, state and local government web resources and services.